createdAt,value
2024-02-02T00:00:18.755Z,36.13
2024-02-02T00:02:45.444Z,32.25
2024-02-02T00:05:12.009Z,40.05
2024-02-02T00:07:38.546Z,35.08
2024-02-02T00:10:05.661Z,37.75
2024-02-02T00:12:32.825Z,35.92
2024-02-02T00:14:59.608Z,39.30
2024-02-02T00:17:26.966Z,40.42
2024-02-02T00:19:53.513Z,38.97
2024-02-02T00:22:22.162Z,31.15
2024-02-02T00:24:48.900Z,34.17
2024-02-02T00:27:16.199Z,33.85
2024-02-02T00:29:47.638Z,32.05
2024-02-02T00:32:14.925Z,39.25
2024-02-02T00:34:42.907Z,33.05
2024-02-02T00:37:09.832Z,41.63
2024-02-02T00:39:36.555Z,41.03
2024-02-02T00:42:03.332Z,36.65
2024-02-02T00:44:29.980Z,36.08
2024-02-02T00:46:56.540Z,28.30
2024-02-02T00:49:24.808Z,36.78
2024-02-02T00:51:52.123Z,43.65
2024-02-02T00:54:19.707Z,47.53
2024-02-02T00:56:46.675Z,37.30
2024-02-02T00:59:13.322Z,36.20
2024-02-02T01:01:40.692Z,40.50
2024-02-02T01:04:07.234Z,34.20
2024-02-02T01:06:34.153Z,43.28
2024-02-02T01:09:01.016Z,34.05
2024-02-02T01:11:28.107Z,35.30
2024-02-02T01:13:55.516Z,38.13
2024-02-02T01:16:22.678Z,34.55
2024-02-02T01:18:49.364Z,34.42
2024-02-02T01:21:16.462Z,40.30
2024-02-02T01:23:43.080Z,43.85
2024-02-02T01:26:09.670Z,41.42
2024-02-02T01:28:36.217Z,33.67
2024-02-02T01:31:02.770Z,49.33
2024-02-02T01:33:29.406Z,29.77
2024-02-02T01:35:56.099Z,35.38
2024-02-02T01:38:22.823Z,31.35
2024-02-02T01:40:50.308Z,40.10
2024-02-02T01:43:17.003Z,40.95
2024-02-02T01:45:43.559Z,37.00
2024-02-02T01:48:10.242Z,42.35
2024-02-02T01:50:37.988Z,36.85
2024-02-02T01:53:05.021Z,39.80
2024-02-02T01:55:31.672Z,37.25
2024-02-02T01:57:58.255Z,38.30
2024-02-02T02:00:25.282Z,35.30
2024-02-02T02:02:52.435Z,45.50
2024-02-02T03:06:46.410Z,38.72
2024-02-02T03:09:13.244Z,42.42
2024-02-02T03:11:39.908Z,31.65
2024-02-02T03:14:06.649Z,35.13
2024-02-02T03:16:33.281Z,41.83
2024-02-02T03:19:00.234Z,40.88
2024-02-02T03:21:26.983Z,31.20
2024-02-02T03:23:53.598Z,40.90
2024-02-02T03:26:20.136Z,36.70
2024-02-02T03:28:46.666Z,49.40
2024-02-02T03:31:14.028Z,44.50
2024-02-02T03:33:40.647Z,55.50
2024-02-02T03:36:07.537Z,51.92
2024-02-02T06:19:17.539Z,43.63
2024-02-02T06:21:44.983Z,28.20
2024-02-02T06:24:12.414Z,30.73
2024-02-02T06:26:39.939Z,41.30
2024-02-02T06:29:06.548Z,29.27
2024-02-02T06:31:33.161Z,39.38
2024-02-02T06:33:59.745Z,38.78
2024-02-02T06:36:28.529Z,39.63
2024-02-02T06:38:59.341Z,39.83
2024-02-02T06:41:25.934Z,38.78
2024-02-02T06:43:52.663Z,28.17
2024-02-02T06:46:19.366Z,37.42
2024-02-02T06:48:46.306Z,41.65
2024-02-02T06:51:13.732Z,41.80
2024-02-02T06:53:40.541Z,40.30
2024-02-02T06:56:30.149Z,33.97
2024-02-02T06:58:56.714Z,34.33
2024-02-02T07:01:23.745Z,38.65
2024-02-02T07:03:51.379Z,24.33
2024-02-02T07:06:18.343Z,34.90
2024-02-02T07:08:45.541Z,36.72
2024-02-02T07:11:12.017Z,30.10
2024-02-02T07:13:50.640Z,33.80
2024-02-02T07:16:28.860Z,39.97
2024-02-02T07:18:55.819Z,37.92
2024-02-02T07:21:30.911Z,39.05
2024-02-02T07:23:59.069Z,35.03
2024-02-02T07:26:28.007Z,36.22
2024-02-02T07:28:55.105Z,29.80
2024-02-02T07:31:46.228Z,31.38
2024-02-02T07:34:12.809Z,34.30
2024-02-02T07:36:39.998Z,36.17
2024-02-02T07:39:24.601Z,27.95
2024-02-02T07:41:51.141Z,30.10
2024-02-02T07:44:17.678Z,35.58
2024-02-02T07:46:44.426Z,32.60
2024-02-02T07:49:11.234Z,25.40
2024-02-02T07:51:41.142Z,30.50
2024-02-02T07:54:07.763Z,43.95
2024-02-02T07:56:34.324Z,49.00
2024-02-02T07:59:01.873Z,34.25
2024-02-02T08:01:34.649Z,39.80
2024-02-02T08:04:02.520Z,39.03
2024-02-02T08:06:29.961Z,34.10
2024-02-02T08:08:58.435Z,42.85
2024-02-02T08:11:26.879Z,33.63
2024-02-02T08:13:53.501Z,30.58
2024-02-02T08:16:20.242Z,29.50
2024-02-02T08:18:47.316Z,37.50
2024-02-02T08:21:14.132Z,34.80
2024-02-02T08:23:40.902Z,34.30
2024-02-02T08:26:07.727Z,36.10
2024-02-02T08:28:42.112Z,39.83
2024-02-02T08:31:15.745Z,28.33
2024-02-02T08:33:44.394Z,30.00
2024-02-02T08:36:12.470Z,30.75
2024-02-02T08:38:39.269Z,33.13
2024-02-02T08:41:06.388Z,26.70
2024-02-02T08:43:33.363Z,33.72
2024-02-02T08:46:09.402Z,33.17
2024-02-02T08:48:38.415Z,52.72
2024-02-02T08:51:43.732Z,27.92
2024-02-02T08:54:16.244Z,28.00
2024-02-02T08:57:23.499Z,21.77
2024-02-02T08:59:53.808Z,28.40
2024-02-02T09:02:53.185Z,25.88
2024-02-02T09:05:21.016Z,41.70
2024-02-02T09:07:55.787Z,30.98
2024-02-02T09:10:31.571Z,28.67
2024-02-02T09:13:02.525Z,42.28
2024-02-02T09:15:35.969Z,28.67
2024-02-02T09:18:03.165Z,29.85
2024-02-02T09:20:50.290Z,33.47
2024-02-02T09:23:20.742Z,33.75
2024-02-02T09:25:48.483Z,34.00
2024-02-02T09:28:26.958Z,26.63
2024-02-02T09:31:01.426Z,32.67
2024-02-02T09:33:47.530Z,28.33
2024-02-02T09:36:16.187Z,25.23
2024-02-02T09:38:56.687Z,32.70
2024-02-02T09:41:31.089Z,24.00
2024-02-02T09:44:22.392Z,31.38
2024-02-02T09:47:00.573Z,40.00
2024-02-02T09:49:46.704Z,29.77
2024-02-02T09:52:44.130Z,24.05
2024-02-02T09:55:33.679Z,26.65
2024-02-02T09:58:02.849Z,24.77
2024-02-02T10:01:01.250Z,27.17
2024-02-02T10:03:48.123Z,25.48
2024-02-02T10:07:02.251Z,29.63
2024-02-02T10:09:37.102Z,29.20
2024-02-02T10:12:06.436Z,21.92
2024-02-02T10:15:06.100Z,21.10
2024-02-02T10:17:59.233Z,22.33
2024-02-02T10:21:00.784Z,26.25
2024-02-02T10:24:11.325Z,17.25
2024-02-02T10:26:48.443Z,18.60
2024-02-02T10:29:34.197Z,23.15
2024-02-02T10:32:19.482Z,20.83
2024-02-02T10:35:17.271Z,14.88
2024-02-02T10:37:50.160Z,14.68
2024-02-02T10:40:40.333Z,23.38
2024-02-02T10:43:35.972Z,20.63
2024-02-02T10:46:05.504Z,21.02
2024-02-02T10:49:04.671Z,19.00
2024-02-02T10:52:01.760Z,18.50
2024-02-02T10:55:20.755Z,15.20
2024-02-02T10:58:20.910Z,22.38
2024-02-02T11:01:22.475Z,24.95
2024-02-02T11:04:11.279Z,22.20
2024-02-02T11:07:00.302Z,13.48
2024-02-02T11:09:45.773Z,13.80
2024-02-02T11:12:22.969Z,27.30
2024-02-02T11:14:56.734Z,23.00
2024-02-02T11:17:34.834Z,19.40
2024-02-02T11:20:29.185Z,15.35
2024-02-02T11:23:27.918Z,19.17
2024-02-02T11:25:57.453Z,16.85
2024-02-02T11:28:56.732Z,15.55
2024-02-02T11:31:50.733Z,24.00
2024-02-02T11:34:25.464Z,15.98
2024-02-02T11:37:13.327Z,18.33
2024-02-02T11:39:54.883Z,21.85
2024-02-02T11:42:22.636Z,20.65
2024-02-02T11:44:50.775Z,19.45
2024-02-02T11:47:20.252Z,22.15
2024-02-02T11:49:53.373Z,14.77
2024-02-02T11:52:28.708Z,16.75
2024-02-02T11:55:27.147Z,21.42
2024-02-02T11:58:03.804Z,23.58
2024-02-02T12:01:07.360Z,23.77
2024-02-02T12:04:13.102Z,29.05
2024-02-02T12:07:02.509Z,25.60
2024-02-02T12:09:42.984Z,18.05
2024-02-02T12:12:18.030Z,30.85
2024-02-02T12:14:50.038Z,24.88
2024-02-02T12:17:17.746Z,19.88
2024-02-02T12:19:45.574Z,22.67
2024-02-02T12:22:13.026Z,21.48
2024-02-02T12:24:42.033Z,27.52
2024-02-02T12:27:09.398Z,25.98
2024-02-02T12:29:39.421Z,23.23
2024-02-02T12:32:10.156Z,21.17
2024-02-02T12:34:37.759Z,25.23
2024-02-02T12:37:06.185Z,23.05
2024-02-02T12:39:33.237Z,21.55
2024-02-02T12:42:00.708Z,27.13
2024-02-02T12:44:27.581Z,27.27
2024-02-02T12:46:54.224Z,24.92
2024-02-02T12:49:25.508Z,26.27
2024-02-02T12:51:58.353Z,30.67
2024-02-02T12:54:25.357Z,33.15
2024-02-02T12:56:52.839Z,24.00
2024-02-02T12:59:20.003Z,25.95
2024-02-02T13:01:49.104Z,23.10
2024-02-02T13:04:16.631Z,24.98
2024-02-02T13:06:44.732Z,27.15
2024-02-02T13:09:33.402Z,29.20
2024-02-02T13:12:02.609Z,20.90
2024-02-02T13:14:32.187Z,29.10
2024-02-02T13:17:16.036Z,25.35
2024-02-02T13:19:46.235Z,24.85
2024-02-02T13:22:19.278Z,29.17
2024-02-02T13:24:48.936Z,25.92
2024-02-02T13:27:24.814Z,29.38
2024-02-02T13:30:03.552Z,24.13
2024-02-02T13:32:35.327Z,24.35
2024-02-02T13:35:02.690Z,29.23
2024-02-02T13:37:38.192Z,24.65
2024-02-02T13:40:10.727Z,21.55
2024-02-02T13:42:38.088Z,30.15
2024-02-02T13:45:12.220Z,34.47
2024-02-02T13:47:39.931Z,32.08
2024-02-02T13:50:31.241Z,26.70
2024-02-02T13:53:01.003Z,23.58
2024-02-02T13:55:32.746Z,22.85
2024-02-02T13:58:00.011Z,32.25
2024-02-02T14:00:33.242Z,28.35
2024-02-02T14:03:11.122Z,19.15
2024-02-02T14:05:40.689Z,27.27
2024-02-02T14:08:07.907Z,22.70
2024-02-02T14:10:47.430Z,29.90
2024-02-02T14:13:17.488Z,25.15
2024-02-02T14:15:49.374Z,28.02
2024-02-02T14:18:22.484Z,29.38
2024-02-02T14:20:49.264Z,33.13
2024-02-02T14:23:16.777Z,27.20
2024-02-02T14:25:44.537Z,23.05
2024-02-02T14:28:20.775Z,30.15
2024-02-02T14:30:48.085Z,29.75
2024-02-02T14:33:24.777Z,23.63
2024-02-02T14:35:52.838Z,35.03
2024-02-02T14:38:19.622Z,19.98
2024-02-02T14:40:46.258Z,26.00
2024-02-02T14:43:12.794Z,25.00
2024-02-02T14:45:39.657Z,21.80
2024-02-02T14:48:07.393Z,23.55
2024-02-02T14:50:36.478Z,28.20
2024-02-02T14:53:03.703Z,31.42
2024-02-02T14:55:33.622Z,29.40
2024-02-02T14:58:01.889Z,25.35
2024-02-02T15:00:32.047Z,30.10
2024-02-02T15:02:59.147Z,26.13
2024-02-02T15:05:26.466Z,28.67
2024-02-02T15:07:54.171Z,26.17
2024-02-02T15:10:21.489Z,32.70
2024-02-02T15:12:49.224Z,28.90
2024-02-02T15:15:16.331Z,28.23
2024-02-02T15:17:43.829Z,24.63
2024-02-02T15:20:11.589Z,38.22
2024-02-02T15:22:38.616Z,30.23
2024-02-02T15:25:06.028Z,28.50
2024-02-02T15:27:35.534Z,30.85
2024-02-02T15:32:34.329Z,30.98
2024-02-02T15:35:01.088Z,29.02
2024-02-02T15:37:28.245Z,20.30
2024-02-02T15:39:58.395Z,35.33
2024-02-02T15:42:26.687Z,33.90
2024-02-02T15:44:56.149Z,26.25
2024-02-02T15:47:22.713Z,25.30
2024-02-02T15:49:49.971Z,27.05
2024-02-02T15:52:16.816Z,29.88
2024-02-02T15:54:43.801Z,32.20
2024-02-02T15:57:11.374Z,27.85
2024-02-02T15:59:38.987Z,26.42
2024-02-02T16:02:09.274Z,28.60
2024-02-02T16:04:36.492Z,31.00
2024-02-02T16:07:05.570Z,26.88
2024-02-02T16:09:38.274Z,27.58
2024-02-02T16:12:09.708Z,27.33
2024-02-02T16:14:37.131Z,28.30
2024-02-02T16:17:04.155Z,28.90
2024-02-02T16:19:30.951Z,32.17
2024-02-02T16:21:57.726Z,29.52
2024-02-02T16:24:24.533Z,40.05
2024-02-02T16:26:53.503Z,32.92
2024-02-02T16:29:20.085Z,27.45
2024-02-02T16:31:47.627Z,24.23
2024-02-02T16:34:14.620Z,26.88
2024-02-02T16:36:46.111Z,27.00
2024-02-02T16:39:14.840Z,30.20
2024-02-02T16:41:42.639Z,26.65
2024-02-02T16:44:09.551Z,26.90
2024-02-02T16:46:43.931Z,37.63
2024-02-02T16:49:11.551Z,27.90
2024-02-02T16:51:38.523Z,25.10
2024-02-02T16:54:09.256Z,29.15
2024-02-02T16:56:37.232Z,35.00
2024-02-02T16:59:04.327Z,34.25
2024-02-02T17:01:35.287Z,31.23
2024-02-02T17:04:02.754Z,27.80
2024-02-02T17:06:30.750Z,27.40
2024-02-02T17:08:58.050Z,38.65
2024-02-02T17:11:25.098Z,32.92
2024-02-02T17:13:51.743Z,26.88
2024-02-02T17:16:21.221Z,30.60
2024-02-02T17:18:48.304Z,26.75
2024-02-02T17:21:15.426Z,31.35
2024-02-02T17:23:42.057Z,39.08
2024-02-02T17:26:16.053Z,26.88
2024-02-02T17:28:43.922Z,43.03
2024-02-02T17:31:15.190Z,30.30
2024-02-02T17:33:42.672Z,35.97
2024-02-02T17:36:16.525Z,31.33
2024-02-02T17:38:44.246Z,32.20
2024-02-02T17:41:15.655Z,35.35
2024-02-02T17:43:44.506Z,40.13
2024-02-02T17:46:20.380Z,33.55
2024-02-02T17:48:48.328Z,39.72
2024-02-02T17:51:25.595Z,39.95
2024-02-02T17:53:55.597Z,32.05
2024-02-02T17:56:23.779Z,39.72
2024-02-02T17:58:55.913Z,32.38
2024-02-02T18:01:24.125Z,34.22
2024-02-02T18:03:52.223Z,39.65
2024-02-02T18:06:18.978Z,38.38
2024-02-02T18:08:45.628Z,38.63
2024-02-02T18:11:12.207Z,40.33
2024-02-02T18:13:38.770Z,34.03
2024-02-02T18:16:05.600Z,30.15
2024-02-02T18:18:32.473Z,28.88
2024-02-02T18:20:59.169Z,37.88
2024-02-02T18:23:29.357Z,36.15
2024-02-02T18:25:56.284Z,29.98
2024-02-02T18:28:27.403Z,30.30
2024-02-02T18:30:56.100Z,27.92
2024-02-02T18:33:22.949Z,31.80
2024-02-02T18:35:50.287Z,33.20
2024-02-02T18:38:17.680Z,32.05
2024-02-02T18:40:46.726Z,34.05
2024-02-02T18:43:13.386Z,30.80
2024-02-02T18:45:40.023Z,33.83
2024-02-02T18:48:08.085Z,28.08
2024-02-02T18:50:35.035Z,25.88
2024-02-02T18:53:01.655Z,35.25
2024-02-02T18:55:28.357Z,29.75
2024-02-02T18:57:54.933Z,27.67
2024-02-02T19:00:21.670Z,25.65
2024-02-02T19:02:48.447Z,33.95
2024-02-02T19:05:15.179Z,23.10
2024-02-02T19:07:41.839Z,28.38
2024-02-02T19:10:08.688Z,25.83
2024-02-02T19:12:36.063Z,30.75
2024-02-02T19:15:05.579Z,25.98
2024-02-02T19:17:32.404Z,24.23
2024-02-02T19:20:00.003Z,26.30
2024-02-02T19:22:26.730Z,27.33
2024-02-02T19:24:54.010Z,25.15
2024-02-02T19:27:20.703Z,24.85
2024-02-02T19:29:47.254Z,25.67
2024-02-02T19:32:14.437Z,20.33
2024-02-02T19:34:41.482Z,21.98
2024-02-02T19:37:08.418Z,22.70
2024-02-02T19:39:35.118Z,21.13
2024-02-02T19:42:02.040Z,23.02
2024-02-02T19:44:28.673Z,25.10
2024-02-02T19:46:55.233Z,21.98
2024-02-02T19:49:22.254Z,25.60
2024-02-02T19:51:49.914Z,22.70
2024-02-02T19:54:18.430Z,20.88
2024-02-02T19:56:45.690Z,25.08
2024-02-02T19:59:17.590Z,21.27
2024-02-02T20:01:52.603Z,19.67
2024-02-02T20:04:19.248Z,25.88
2024-02-02T20:06:46.096Z,23.27
2024-02-02T20:09:14.709Z,23.15
2024-02-02T20:11:41.280Z,22.90
2024-02-02T20:14:07.862Z,23.92
2024-02-02T20:16:34.411Z,24.83
2024-02-02T20:19:01.243Z,26.52
2024-02-02T20:21:29.727Z,24.38
2024-02-02T20:23:56.700Z,27.20
2024-02-02T20:26:24.169Z,25.00
2024-02-02T20:28:52.510Z,24.80
2024-02-02T20:31:19.539Z,21.92
2024-02-02T20:33:46.593Z,23.67
2024-02-02T20:36:13.483Z,25.17
2024-02-02T20:38:41.574Z,22.38
2024-02-02T20:41:08.835Z,20.02
2024-02-02T20:43:36.312Z,21.60
2024-02-02T20:46:02.919Z,19.58
2024-02-02T20:48:29.493Z,22.73
2024-02-02T20:50:56.248Z,25.02
2024-02-02T20:53:22.875Z,22.73
2024-02-02T20:55:50.211Z,23.90
2024-02-02T20:58:16.932Z,21.73
2024-02-02T21:00:43.844Z,29.50
2024-02-02T21:03:11.410Z,23.52
2024-02-02T21:05:38.330Z,21.80
2024-02-02T21:08:05.400Z,22.33
2024-02-02T21:10:32.433Z,22.70
2024-02-02T21:12:59.282Z,20.08
2024-02-02T21:15:31.039Z,19.15
2024-02-02T21:17:58.304Z,22.08
2024-02-02T21:20:32.089Z,19.73
2024-02-02T21:22:58.849Z,23.25
2024-02-02T21:25:26.449Z,21.48
2024-02-02T21:27:53.227Z,22.50
2024-02-02T21:30:19.917Z,18.00
2024-02-02T21:32:46.567Z,21.88
2024-02-02T21:35:13.335Z,23.88
2024-02-02T21:37:39.974Z,18.52
2024-02-02T21:40:07.335Z,20.17
2024-02-02T21:42:34.764Z,18.80
2024-02-02T21:45:01.388Z,22.67
2024-02-02T21:47:29.630Z,17.92
2024-02-02T21:49:56.474Z,19.10
2024-02-02T21:52:23.258Z,19.23
2024-02-02T21:54:49.852Z,19.02
2024-02-02T21:57:16.464Z,18.55
2024-02-02T21:59:43.051Z,16.70
2024-02-02T22:02:09.776Z,18.77
2024-02-02T22:04:36.430Z,17.13
2024-02-02T22:07:05.117Z,17.23
2024-02-02T22:09:32.097Z,16.67
2024-02-02T22:11:59.581Z,19.15
2024-02-02T22:14:26.222Z,21.02
2024-02-02T22:16:52.817Z,18.63
2024-02-02T22:19:19.489Z,18.45
2024-02-02T22:21:47.589Z,19.35
2024-02-02T22:24:14.554Z,22.15
2024-02-02T22:26:41.134Z,24.42
2024-02-02T22:29:07.741Z,17.42
2024-02-02T22:31:36.090Z,26.42
2024-02-02T22:34:03.027Z,20.55
2024-02-02T22:36:30.328Z,19.75
2024-02-02T22:38:57.138Z,22.83
2024-02-02T22:41:32.964Z,20.20
2024-02-02T22:44:02.117Z,18.42
2024-02-02T22:46:32.615Z,17.08
2024-02-02T22:48:59.498Z,19.08
2024-02-02T22:51:26.687Z,16.50
2024-02-02T22:53:53.546Z,19.05
2024-02-02T22:56:20.213Z,18.75
2024-02-02T22:58:46.841Z,17.05
2024-02-02T23:01:13.681Z,13.93
2024-02-02T23:03:40.534Z,14.38
2024-02-02T23:06:07.868Z,19.42
2024-02-02T23:08:35.438Z,17.45
2024-02-02T23:11:02.080Z,14.68
2024-02-02T23:13:28.662Z,13.90
2024-02-02T23:15:57.184Z,15.32
2024-02-02T23:18:25.126Z,14.80
2024-02-02T23:20:53.593Z,14.38
2024-02-02T23:23:23.378Z,13.68
2024-02-02T23:25:50.709Z,15.05
2024-02-02T23:28:18.494Z,13.35
2024-02-02T23:30:47.835Z,13.80
2024-02-02T23:33:15.411Z,13.00
2024-02-02T23:35:44.722Z,15.98
2024-02-02T23:38:11.448Z,11.90
2024-02-02T23:40:38.345Z,13.63
2024-02-02T23:43:05.988Z,13.30
2024-02-02T23:45:33.393Z,12.45
2024-02-02T23:48:00.051Z,12.50
2024-02-02T23:50:26.733Z,12.52
2024-02-02T23:52:53.333Z,14.93
2024-02-02T23:55:20.482Z,13.73
2024-02-02T23:57:47.501Z,15.70
